sensor_id;sensor_type;location;lat;lon;timestamp;temperature;humidity
31799;DHT22;18374;51.136;3.502;2022-11-20T00:01:32;4.50;99.90
31799;DHT22;18374;51.136;3.502;2022-11-20T00:04:00;4.50;99.90
31799;DHT22;18374;51.136;3.502;2022-11-20T00:06:29;4.50;99.90
31799;DHT22;18374;51.136;3.502;2022-11-20T00:08:58;4.50;99.90
31799;DHT22;18374;51.136;3.502;2022-11-20T00:11:28;4.50;99.90
31799;DHT22;18374;51.136;3.502;2022-11-20T00:13:59;4.50;99.90
31799;DHT22;18374;51.136;3.502;2022-11-20T00:16:30;4.60;99.90
31799;DHT22;18374;51.136;3.502;2022-11-20T00:18:59;4.60;99.90
31799;DHT22;18374;51.136;3.502;2022-11-20T00:21:27;4.60;99.90
31799;DHT22;18374;51.136;3.502;2022-11-20T00:23:56;4.60;99.90
31799;DHT22;18374;51.136;3.502;2022-11-20T00:26:26;4.60;99.90
31799;DHT22;18374;51.136;3.502;2022-11-20T00:28:56;4.60;99.90
31799;DHT22;18374;51.136;3.502;2022-11-20T00:31:26;4.70;99.90
31799;DHT22;18374;51.136;3.502;2022-11-20T00:33:55;4.70;99.90
31799;DHT22;18374;51.136;3.502;2022-11-20T00:36:25;4.80;99.90
31799;DHT22;18374;51.136;3.502;2022-11-20T00:38:56;4.80;99.90
31799;DHT22;18374;51.136;3.502;2022-11-20T00:41:26;4.80;99.90
31799;DHT22;18374;51.136;3.502;2022-11-20T00:43:55;4.80;99.90
31799;DHT22;18374;51.136;3.502;2022-11-20T00:46:25;4.70;99.90
31799;DHT22;18374;51.136;3.502;2022-11-20T00:48:54;4.80;99.90
31799;DHT22;18374;51.136;3.502;2022-11-20T00:51:24;4.80;99.90
31799;DHT22;18374;51.136;3.502;2022-11-20T00:53:58;4.80;99.90
31799;DHT22;18374;51.136;3.502;2022-11-20T00:56:27;4.60;99.90
31799;DHT22;18374;51.136;3.502;2022-11-20T00:58:55;4.60;99.90
31799;DHT22;18374;51.136;3.502;2022-11-20T01:01:25;4.60;99.90
31799;DHT22;18374;51.136;3.502;2022-11-20T01:03:59;4.50;99.90
31799;DHT22;18374;51.136;3.502;2022-11-20T01:06:30;4.40;99.90
31799;DHT22;18374;51.136;3.502;2022-11-20T01:09:00;4.40;99.90
31799;DHT22;18374;51.136;3.502;2022-11-20T01:11:36;4.40;99.90
31799;DHT22;18374;51.136;3.502;2022-11-20T01:14:10;4.50;99.90
31799;DHT22;18374;51.136;3.502;2022-11-20T01:16:41;4.50;99.90
31799;DHT22;18374;51.136;3.502;2022-11-20T01:19:14;4.60;99.90
31799;DHT22;18374;51.136;3.502;2022-11-20T01:21:47;4.50;99.90
31799;DHT22;18374;51.136;3.502;2022-11-20T01:24:17;4.40;99.90
31799;DHT22;18374;51.136;3.502;2022-11-20T01:26:48;4.30;99.90
31799;DHT22;18374;51.136;3.502;2022-11-20T01:29:21;4.30;99.90
31799;DHT22;18374;51.136;3.502;2022-11-20T01:31:51;4.30;99.90
31799;DHT22;18374;51.136;3.502;2022-11-20T01:34:21;4.20;99.90
31799;DHT22;18374;51.136;3.502;2022-11-20T01:36:50;4.20;99.90
31799;DHT22;18374;51.136;3.502;2022-11-20T01:39:21;4.10;99.90
31799;DHT22;18374;51.136;3.502;2022-11-20T01:41:52;4.20;99.90
31799;DHT22;18374;51.136;3.502;2022-11-20T01:50:17;4.40;99.90
31799;DHT22;18374;51.136;3.502;2022-11-20T01:55:27;4.40;99.90
31799;DHT22;18374;51.136;3.502;2022-11-20T01:57:57;4.40;99.90
31799;DHT22;18374;51.136;3.502;2022-11-20T02:00:26;4.40;99.90
31799;DHT22;18374;51.136;3.502;2022-11-20T02:02:58;4.50;99.90
31799;DHT22;18374;51.136;3.502;2022-11-20T02:05:39;4.50;99.90
31799;DHT22;18374;51.136;3.502;2022-11-20T02:08:12;4.60;99.90
31799;DHT22;18374;51.136;3.502;2022-11-20T02:10:39;4.50;99.90
31799;DHT22;18374;51.136;3.502;2022-11-20T02:13:08;4.60;99.90
31799;DHT22;18374;51.136;3.502;2022-11-20T02:15:54;4.60;99.90
31799;DHT22;18374;51.136;3.502;2022-11-20T02:18:23;4.60;99.90
31799;DHT22;18374;51.136;3.502;2022-11-20T02:20:58;4.60;99.90
31799;DHT22;18374;51.136;3.502;2022-11-20T02:23:39;4.60;99.90
31799;DHT22;18374;51.136;3.502;2022-11-20T02:26:18;4.60;99.90
31799;DHT22;18374;51.136;3.502;2022-11-20T02:28:47;4.60;99.90
31799;DHT22;18374;51.136;3.502;2022-11-20T02:31:15;4.60;99.90
31799;DHT22;18374;51.136;3.502;2022-11-20T02:33:42;4.60;99.90
31799;DHT22;18374;51.136;3.502;2022-11-20T02:36:12;4.60;99.90
31799;DHT22;18374;51.136;3.502;2022-11-20T02:38:43;4.60;99.90
31799;DHT22;18374;51.136;3.502;2022-11-20T02:41:11;4.70;99.90
31799;DHT22;18374;51.136;3.502;2022-11-20T02:43:38;4.70;99.90
31799;DHT22;18374;51.136;3.502;2022-11-20T02:46:07;4.70;99.90
31799;DHT22;18374;51.136;3.502;2022-11-20T02:48:35;4.70;99.90
31799;DHT22;18374;51.136;3.502;2022-11-20T02:51:03;4.70;99.90
31799;DHT22;18374;51.136;3.502;2022-11-20T02:53:30;4.70;99.90
31799;DHT22;18374;51.136;3.502;2022-11-20T02:55:58;4.80;99.90
31799;DHT22;18374;51.136;3.502;2022-11-20T02:58:26;4.70;99.90
31799;DHT22;18374;51.136;3.502;2022-11-20T03:00:54;4.80;99.90
31799;DHT22;18374;51.136;3.502;2022-11-20T03:03:23;4.80;99.90
31799;DHT22;18374;51.136;3.502;2022-11-20T03:05:50;4.80;99.90
31799;DHT22;18374;51.136;3.502;2022-11-20T03:08:18;4.80;99.90
31799;DHT22;18374;51.136;3.502;2022-11-20T03:10:45;4.80;99.90
31799;DHT22;18374;51.136;3.502;2022-11-20T03:13:13;4.80;99.90
31799;DHT22;18374;51.136;3.502;2022-11-20T03:15:41;4.80;99.90
31799;DHT22;18374;51.136;3.502;2022-11-20T03:18:09;4.80;99.90
31799;DHT22;18374;51.136;3.502;2022-11-20T03:20:36;4.80;99.90
31799;DHT22;18374;51.136;3.502;2022-11-20T03:23:04;4.80;99.90
31799;DHT22;18374;51.136;3.502;2022-11-20T03:25:31;4.90;99.90
31799;DHT22;18374;51.136;3.502;2022-11-20T03:27:59;4.90;99.90
31799;DHT22;18374;51.136;3.502;2022-11-20T03:30:27;4.90;99.90
31799;DHT22;18374;51.136;3.502;2022-11-20T03:32:57;4.90;99.90
31799;DHT22;18374;51.136;3.502;2022-11-20T03:35:24;4.90;99.90
31799;DHT22;18374;51.136;3.502;2022-11-20T03:37:53;4.90;99.90
31799;DHT22;18374;51.136;3.502;2022-11-20T03:40:20;4.90;99.90
31799;DHT22;18374;51.136;3.502;2022-11-20T03:42:48;4.90;99.90
31799;DHT22;18374;51.136;3.502;2022-11-20T03:45:17;4.90;99.90
31799;DHT22;18374;51.136;3.502;2022-11-20T03:47:46;4.90;99.90
31799;DHT22;18374;51.136;3.502;2022-11-20T03:50:14;4.80;99.90
31799;DHT22;18374;51.136;3.502;2022-11-20T03:52:42;4.80;99.90
31799;DHT22;18374;51.136;3.502;2022-11-20T03:55:10;4.90;99.90
31799;DHT22;18374;51.136;3.502;2022-11-20T03:57:38;4.90;99.90
31799;DHT22;18374;51.136;3.502;2022-11-20T04:00:06;4.90;99.90
31799;DHT22;18374;51.136;3.502;2022-11-20T04:02:34;4.90;99.90
31799;DHT22;18374;51.136;3.502;2022-11-20T04:05:02;4.90;99.90
31799;DHT22;18374;51.136;3.502;2022-11-20T04:07:30;4.90;99.90
31799;DHT22;18374;51.136;3.502;2022-11-20T04:09:58;4.90;99.90
31799;DHT22;18374;51.136;3.502;2022-11-20T04:12:26;4.90;99.90
31799;DHT22;18374;51.136;3.502;2022-11-20T04:14:54;4.90;99.90
31799;DHT22;18374;51.136;3.502;2022-11-20T04:17:22;4.90;99.90
31799;DHT22;18374;51.136;3.502;2022-11-20T04:19:50;4.90;99.90
31799;DHT22;18374;51.136;3.502;2022-11-20T04:22:17;4.90;99.90
31799;DHT22;18374;51.136;3.502;2022-11-20T04:24:45;4.90;99.90
31799;DHT22;18374;51.136;3.502;2022-11-20T04:27:13;4.90;99.90
31799;DHT22;18374;51.136;3.502;2022-11-20T04:29:44;4.80;99.90
31799;DHT22;18374;51.136;3.502;2022-11-20T04:32:12;4.80;99.90
31799;DHT22;18374;51.136;3.502;2022-11-20T04:34:39;4.80;99.90
31799;DHT22;18374;51.136;3.502;2022-11-20T04:37:07;4.80;99.90
31799;DHT22;18374;51.136;3.502;2022-11-20T04:39:35;4.70;99.90
31799;DHT22;18374;51.136;3.502;2022-11-20T04:42:03;4.70;99.90
31799;DHT22;18374;51.136;3.502;2022-11-20T04:44:50;4.70;99.90
31799;DHT22;18374;51.136;3.502;2022-11-20T04:47:17;4.70;99.90
31799;DHT22;18374;51.136;3.502;2022-11-20T04:49:45;4.80;99.90
31799;DHT22;18374;51.136;3.502;2022-11-20T04:52:13;4.70;99.90
31799;DHT22;18374;51.136;3.502;2022-11-20T04:54:41;4.70;99.90
31799;DHT22;18374;51.136;3.502;2022-11-20T04:57:09;4.60;99.90
31799;DHT22;18374;51.136;3.502;2022-11-20T04:59:41;4.60;99.90
31799;DHT22;18374;51.136;3.502;2022-11-20T05:02:10;4.60;99.90
31799;DHT22;18374;51.136;3.502;2022-11-20T05:04:38;4.70;99.90
31799;DHT22;18374;51.136;3.502;2022-11-20T05:07:06;4.70;99.90
31799;DHT22;18374;51.136;3.502;2022-11-20T05:09:33;4.70;99.90
31799;DHT22;18374;51.136;3.502;2022-11-20T05:12:01;4.70;99.90
31799;DHT22;18374;51.136;3.502;2022-11-20T05:14:29;4.70;99.90
31799;DHT22;18374;51.136;3.502;2022-11-20T05:16:57;4.70;99.90
31799;DHT22;18374;51.136;3.502;2022-11-20T05:19:25;4.70;99.90
31799;DHT22;18374;51.136;3.502;2022-11-20T05:21:53;4.70;99.90
31799;DHT22;18374;51.136;3.502;2022-11-20T05:24:21;4.70;99.90
31799;DHT22;18374;51.136;3.502;2022-11-20T05:26:49;4.70;99.90
31799;DHT22;18374;51.136;3.502;2022-11-20T05:29:17;4.70;99.90
31799;DHT22;18374;51.136;3.502;2022-11-20T05:31:45;4.80;99.90
31799;DHT22;18374;51.136;3.502;2022-11-20T05:34:13;4.80;99.90
31799;DHT22;18374;51.136;3.502;2022-11-20T05:36:41;4.80;99.90
31799;DHT22;18374;51.136;3.502;2022-11-20T05:39:09;4.80;99.90
31799;DHT22;18374;51.136;3.502;2022-11-20T05:41:37;4.80;99.90
31799;DHT22;18374;51.136;3.502;2022-11-20T05:44:04;4.90;99.90
31799;DHT22;18374;51.136;3.502;2022-11-20T05:46:32;4.90;99.90
31799;DHT22;18374;51.136;3.502;2022-11-20T05:49:00;4.90;99.90
31799;DHT22;18374;51.136;3.502;2022-11-20T05:51:28;4.90;99.90
31799;DHT22;18374;51.136;3.502;2022-11-20T05:53:57;4.90;99.90
31799;DHT22;18374;51.136;3.502;2022-11-20T05:56:26;4.90;99.90
31799;DHT22;18374;51.136;3.502;2022-11-20T05:58:53;4.90;99.90
31799;DHT22;18374;51.136;3.502;2022-11-20T06:01:24;4.90;99.90
31799;DHT22;18374;51.136;3.502;2022-11-20T06:03:54;4.90;99.90
31799;DHT22;18374;51.136;3.502;2022-11-20T06:06:22;5.00;99.90
31799;DHT22;18374;51.136;3.502;2022-11-20T06:08:50;4.90;99.90
31799;DHT22;18374;51.136;3.502;2022-11-20T06:11:18;4.90;99.90
31799;DHT22;18374;51.136;3.502;2022-11-20T06:13:47;4.90;99.90
31799;DHT22;18374;51.136;3.502;2022-11-20T06:16:17;4.90;99.90
31799;DHT22;18374;51.136;3.502;2022-11-20T06:18:46;5.00;99.90
31799;DHT22;18374;51.136;3.502;2022-11-20T06:21:17;5.00;99.90
31799;DHT22;18374;51.136;3.502;2022-11-20T06:23:47;4.90;99.90
31799;DHT22;18374;51.136;3.502;2022-11-20T06:26:20;5.00;99.90
31799;DHT22;18374;51.136;3.502;2022-11-20T06:28:54;4.90;99.90
31799;DHT22;18374;51.136;3.502;2022-11-20T06:31:25;5.00;99.90
31799;DHT22;18374;51.136;3.502;2022-11-20T06:33:53;5.00;99.90
31799;DHT22;18374;51.136;3.502;2022-11-20T06:36:22;5.00;99.90
31799;DHT22;18374;51.136;3.502;2022-11-20T06:38:50;5.00;99.90
31799;DHT22;18374;51.136;3.502;2022-11-20T06:41:20;5.00;99.90
31799;DHT22;18374;51.136;3.502;2022-11-20T06:43:49;5.00;99.90
31799;DHT22;18374;51.136;3.502;2022-11-20T06:46:18;5.00;99.90
31799;DHT22;18374;51.136;3.502;2022-11-20T06:48:47;5.00;99.90
31799;DHT22;18374;51.136;3.502;2022-11-20T06:51:16;5.00;99.90
31799;DHT22;18374;51.136;3.502;2022-11-20T06:53:44;5.00;99.90
31799;DHT22;18374;51.136;3.502;2022-11-20T06:56:12;5.10;99.90
31799;DHT22;18374;51.136;3.502;2022-11-20T06:58:40;5.10;99.90
31799;DHT22;18374;51.136;3.502;2022-11-20T07:01:13;5.10;99.90
31799;DHT22;18374;51.136;3.502;2022-11-20T07:03:42;5.10;99.90
31799;DHT22;18374;51.136;3.502;2022-11-20T07:06:11;5.10;99.90
31799;DHT22;18374;51.136;3.502;2022-11-20T07:08:39;5.10;99.90
31799;DHT22;18374;51.136;3.502;2022-11-20T07:11:07;5.20;99.90
31799;DHT22;18374;51.136;3.502;2022-11-20T07:13:35;5.20;99.90
31799;DHT22;18374;51.136;3.502;2022-11-20T07:16:06;5.20;99.90
31799;DHT22;18374;51.136;3.502;2022-11-20T07:18:35;5.20;99.90
31799;DHT22;18374;51.136;3.502;2022-11-20T07:21:06;5.20;99.90
31799;DHT22;18374;51.136;3.502;2022-11-20T07:23:36;5.20;99.90
31799;DHT22;18374;51.136;3.502;2022-11-20T07:26:09;5.20;99.90
31799;DHT22;18374;51.136;3.502;2022-11-20T07:28:38;5.20;99.90
31799;DHT22;18374;51.136;3.502;2022-11-20T07:31:06;5.20;99.90
31799;DHT22;18374;51.136;3.502;2022-11-20T07:33:34;5.20;99.90
31799;DHT22;18374;51.136;3.502;2022-11-20T07:36:02;5.20;99.90
31799;DHT22;18374;51.136;3.502;2022-11-20T07:38:31;5.20;99.90
31799;DHT22;18374;51.136;3.502;2022-11-20T07:40:59;5.20;99.90
31799;DHT22;18374;51.136;3.502;2022-11-20T07:43:29;5.20;99.90
31799;DHT22;18374;51.136;3.502;2022-11-20T07:45:58;5.30;99.90
31799;DHT22;18374;51.136;3.502;2022-11-20T07:48:26;5.30;99.90
31799;DHT22;18374;51.136;3.502;2022-11-20T07:50:57;5.30;99.90
31799;DHT22;18374;51.136;3.502;2022-11-20T07:53:25;5.30;99.90
31799;DHT22;18374;51.136;3.502;2022-11-20T07:55:53;5.30;99.90
31799;DHT22;18374;51.136;3.502;2022-11-20T07:58:21;5.40;99.90
31799;DHT22;18374;51.136;3.502;2022-11-20T08:00:49;5.40;99.90
31799;DHT22;18374;51.136;3.502;2022-11-20T08:03:17;5.30;99.90
31799;DHT22;18374;51.136;3.502;2022-11-20T08:05:51;5.40;99.90
31799;DHT22;18374;51.136;3.502;2022-11-20T08:08:20;5.30;99.90
31799;DHT22;18374;51.136;3.502;2022-11-20T08:10:49;5.40;99.90
31799;DHT22;18374;51.136;3.502;2022-11-20T08:13:16;5.40;99.90
31799;DHT22;18374;51.136;3.502;2022-11-20T08:16:03;5.40;99.90
31799;DHT22;18374;51.136;3.502;2022-11-20T08:18:31;5.40;99.90
31799;DHT22;18374;51.136;3.502;2022-11-20T08:21:03;5.40;99.90
31799;DHT22;18374;51.136;3.502;2022-11-20T08:23:32;5.40;99.90
31799;DHT22;18374;51.136;3.502;2022-11-20T08:25:59;5.40;99.90
31799;DHT22;18374;51.136;3.502;2022-11-20T08:28:27;5.40;99.90
31799;DHT22;18374;51.136;3.502;2022-11-20T08:31:00;5.40;99.90
31799;DHT22;18374;51.136;3.502;2022-11-20T08:33:29;5.40;99.90
31799;DHT22;18374;51.136;3.502;2022-11-20T08:36:02;5.40;99.90
31799;DHT22;18374;51.136;3.502;2022-11-20T08:38:31;5.50;99.90
31799;DHT22;18374;51.136;3.502;2022-11-20T08:41:01;5.40;99.90
31799;DHT22;18374;51.136;3.502;2022-11-20T08:43:48;5.50;99.90
31799;DHT22;18374;51.136;3.502;2022-11-20T08:46:16;5.50;99.90
31799;DHT22;18374;51.136;3.502;2022-11-20T08:48:44;5.50;99.90
31799;DHT22;18374;51.136;3.502;2022-11-20T08:51:13;5.50;99.90
31799;DHT22;18374;51.136;3.502;2022-11-20T08:53:41;5.50;99.90
31799;DHT22;18374;51.136;3.502;2022-11-20T08:56:09;5.50;99.90
31799;DHT22;18374;51.136;3.502;2022-11-20T08:58:38;5.60;99.90
31799;DHT22;18374;51.136;3.502;2022-11-20T09:01:26;5.60;99.90
31799;DHT22;18374;51.136;3.502;2022-11-20T09:03:56;5.60;99.90
31799;DHT22;18374;51.136;3.502;2022-11-20T09:06:24;5.70;99.90
31799;DHT22;18374;51.136;3.502;2022-11-20T09:08:55;5.70;99.90
31799;DHT22;18374;51.136;3.502;2022-11-20T09:11:30;5.70;99.90
31799;DHT22;18374;51.136;3.502;2022-11-20T09:13:57;5.80;99.90
31799;DHT22;18374;51.136;3.502;2022-11-20T09:16:25;5.80;99.90
31799;DHT22;18374;51.136;3.502;2022-11-20T09:18:53;5.80;99.90
31799;DHT22;18374;51.136;3.502;2022-11-20T09:21:41;5.90;99.90
31799;DHT22;18374;51.136;3.502;2022-11-20T09:24:09;5.90;99.90
31799;DHT22;18374;51.136;3.502;2022-11-20T09:26:37;6.00;99.90
31799;DHT22;18374;51.136;3.502;2022-11-20T09:29:05;6.00;99.90
31799;DHT22;18374;51.136;3.502;2022-11-20T09:31:33;6.00;99.90
31799;DHT22;18374;51.136;3.502;2022-11-20T09:34:01;6.10;99.90
31799;DHT22;18374;51.136;3.502;2022-11-20T09:36:29;6.10;99.90
31799;DHT22;18374;51.136;3.502;2022-11-20T09:38:56;6.10;99.90
31799;DHT22;18374;51.136;3.502;2022-11-20T09:44:49;6.20;99.90
31799;DHT22;18374;51.136;3.502;2022-11-20T09:56:09;6.40;99.90
31799;DHT22;18374;51.136;3.502;2022-11-20T09:58:44;6.40;99.90
31799;DHT22;18374;51.136;3.502;2022-11-20T10:01:19;6.50;99.90
31799;DHT22;18374;51.136;3.502;2022-11-20T10:03:57;6.50;99.90
31799;DHT22;18374;51.136;3.502;2022-11-20T10:10:00;6.60;99.90
31799;DHT22;18374;51.136;3.502;2022-11-20T10:18:23;6.70;99.90
31799;DHT22;18374;51.136;3.502;2022-11-20T10:21:26;6.70;99.90
31799;DHT22;18374;51.136;3.502;2022-11-20T10:24:29;6.80;99.90
31799;DHT22;18374;51.136;3.502;2022-11-20T10:27:43;6.80;99.90
31799;DHT22;18374;51.136;3.502;2022-11-20T10:30:16;6.90;99.90
31799;DHT22;18374;51.136;3.502;2022-11-20T10:32:48;6.90;99.90
31799;DHT22;18374;51.136;3.502;2022-11-20T10:37:58;7.00;99.90
31799;DHT22;18374;51.136;3.502;2022-11-20T10:48:07;7.20;99.90
31799;DHT22;18374;51.136;3.502;2022-11-20T10:50:52;7.20;99.90
31799;DHT22;18374;51.136;3.502;2022-11-20T10:57:24;7.30;99.90
31799;DHT22;18374;51.136;3.502;2022-11-20T11:00:10;7.40;99.90
31799;DHT22;18374;51.136;3.502;2022-11-20T11:08:14;7.50;99.90
31799;DHT22;18374;51.136;3.502;2022-11-20T11:13:49;7.50;99.90
31799;DHT22;18374;51.136;3.502;2022-11-20T11:16:48;7.50;99.90
31799;DHT22;18374;51.136;3.502;2022-11-20T11:20:25;7.60;99.90
31799;DHT22;18374;51.136;3.502;2022-11-20T11:23:46;7.60;99.90
31799;DHT22;18374;51.136;3.502;2022-11-20T11:26:35;7.50;99.90
31799;DHT22;18374;51.136;3.502;2022-11-20T11:33:20;7.50;99.90
31799;DHT22;18374;51.136;3.502;2022-11-20T11:35:52;7.50;99.90
31799;DHT22;18374;51.136;3.502;2022-11-20T11:41:48;7.50;99.90
31799;DHT22;18374;51.136;3.502;2022-11-20T11:44:32;7.50;99.90
31799;DHT22;18374;51.136;3.502;2022-11-20T11:47:30;7.40;99.90
31799;DHT22;18374;51.136;3.502;2022-11-20T11:50:27;7.40;99.90
31799;DHT22;18374;51.136;3.502;2022-11-20T11:53:15;7.40;99.90
31799;DHT22;18374;51.136;3.502;2022-11-20T11:55:58;7.30;99.90
31799;DHT22;18374;51.136;3.502;2022-11-20T11:58:52;7.30;99.90
31799;DHT22;18374;51.136;3.502;2022-11-20T12:01:38;7.30;99.90
31799;DHT22;18374;51.136;3.502;2022-11-20T12:07:07;7.20;99.90
31799;DHT22;18374;51.136;3.502;2022-11-20T12:10:00;7.30;99.90
31799;DHT22;18374;51.136;3.502;2022-11-20T12:12:44;7.30;99.90
31799;DHT22;18374;51.136;3.502;2022-11-20T12:16:50;7.30;99.90
31799;DHT22;18374;51.136;3.502;2022-11-20T12:19:58;7.30;99.90
31799;DHT22;18374;51.136;3.502;2022-11-20T12:26:18;7.30;99.90
31799;DHT22;18374;51.136;3.502;2022-11-20T12:36:19;7.30;99.90
31799;DHT22;18374;51.136;3.502;2022-11-20T12:39:02;7.30;99.90
31799;DHT22;18374;51.136;3.502;2022-11-20T12:52:52;7.30;99.90
31799;DHT22;18374;51.136;3.502;2022-11-20T13:00:22;7.40;99.90
31799;DHT22;18374;51.136;3.502;2022-11-20T13:06:24;7.40;99.90
31799;DHT22;18374;51.136;3.502;2022-11-20T13:09:32;7.40;99.90
31799;DHT22;18374;51.136;3.502;2022-11-20T13:12:56;7.40;99.90
31799;DHT22;18374;51.136;3.502;2022-11-20T13:19:15;7.40;99.90
31799;DHT22;18374;51.136;3.502;2022-11-20T13:22:46;7.50;99.90
31799;DHT22;18374;51.136;3.502;2022-11-20T13:25:50;7.50;99.90
31799;DHT22;18374;51.136;3.502;2022-11-20T13:28:39;7.50;99.90
31799;DHT22;18374;51.136;3.502;2022-11-20T13:32:18;7.50;99.90
31799;DHT22;18374;51.136;3.502;2022-11-20T13:35:41;7.50;99.90
31799;DHT22;18374;51.136;3.502;2022-11-20T13:52:03;7.60;99.90
31799;DHT22;18374;51.136;3.502;2022-11-20T14:03:40;7.80;99.90
31799;DHT22;18374;51.136;3.502;2022-11-20T14:11:32;7.80;99.90
31799;DHT22;18374;51.136;3.502;2022-11-20T14:14:32;8.00;99.90
31799;DHT22;18374;51.136;3.502;2022-11-20T14:17:35;8.10;99.90
31799;DHT22;18374;51.136;3.502;2022-11-20T14:20:34;8.20;99.90
31799;DHT22;18374;51.136;3.502;2022-11-20T14:24:04;8.30;99.90
31799;DHT22;18374;51.136;3.502;2022-11-20T14:30:47;8.40;99.90
31799;DHT22;18374;51.136;3.502;2022-11-20T14:33:21;8.50;99.90
31799;DHT22;18374;51.136;3.502;2022-11-20T14:39:34;8.60;99.90
31799;DHT22;18374;51.136;3.502;2022-11-20T14:42:28;8.70;99.90
31799;DHT22;18374;51.136;3.502;2022-11-20T14:44:59;8.80;99.90
31799;DHT22;18374;51.136;3.502;2022-11-20T14:47:29;8.80;99.90
31799;DHT22;18374;51.136;3.502;2022-11-20T14:49:59;8.90;99.90
31799;DHT22;18374;51.136;3.502;2022-11-20T14:52:35;8.90;99.90
31799;DHT22;18374;51.136;3.502;2022-11-20T14:55:04;9.00;99.90
31799;DHT22;18374;51.136;3.502;2022-11-20T14:57:34;9.00;99.90
31799;DHT22;18374;51.136;3.502;2022-11-20T15:02:43;9.00;99.90
31799;DHT22;18374;51.136;3.502;2022-11-20T15:05:16;9.00;99.90
31799;DHT22;18374;51.136;3.502;2022-11-20T15:07:48;9.10;99.90
31799;DHT22;18374;51.136;3.502;2022-11-20T15:10:25;9.10;99.90
31799;DHT22;18374;51.136;3.502;2022-11-20T15:13:03;9.00;99.90
31799;DHT22;18374;51.136;3.502;2022-11-20T15:18:23;9.00;99.90
31799;DHT22;18374;51.136;3.502;2022-11-20T15:20:58;8.90;99.90
31799;DHT22;18374;51.136;3.502;2022-11-20T15:23:30;8.90;99.90
31799;DHT22;18374;51.136;3.502;2022-11-20T15:25:57;8.90;99.90
31799;DHT22;18374;51.136;3.502;2022-11-20T15:28:35;8.80;99.90
31799;DHT22;18374;51.136;3.502;2022-11-20T15:31:05;8.90;99.90
31799;DHT22;18374;51.136;3.502;2022-11-20T15:34:20;8.90;99.90
31799;DHT22;18374;51.136;3.502;2022-11-20T15:36:54;8.90;99.90
31799;DHT22;18374;51.136;3.502;2022-11-20T15:40:42;8.90;99.90
31799;DHT22;18374;51.136;3.502;2022-11-20T15:57:52;8.80;99.90
31799;DHT22;18374;51.136;3.502;2022-11-20T16:00:29;8.80;99.90
31799;DHT22;18374;51.136;3.502;2022-11-20T16:04:16;8.80;99.90
31799;DHT22;18374;51.136;3.502;2022-11-20T16:08:03;8.90;99.90
31799;DHT22;18374;51.136;3.502;2022-11-20T16:20:11;8.70;99.90
31799;DHT22;18374;51.136;3.502;2022-11-20T16:22:57;8.60;99.90
31799;DHT22;18374;51.136;3.502;2022-11-20T16:26:15;8.60;99.90
31799;DHT22;18374;51.136;3.502;2022-11-20T16:28:53;8.50;99.90
31799;DHT22;18374;51.136;3.502;2022-11-20T16:31:24;8.50;99.90
31799;DHT22;18374;51.136;3.502;2022-11-20T16:33:56;8.50;99.90
31799;DHT22;18374;51.136;3.502;2022-11-20T16:36:46;8.50;99.90
31799;DHT22;18374;51.136;3.502;2022-11-20T16:39:27;8.40;99.90
31799;DHT22;18374;51.136;3.502;2022-11-20T16:41:57;8.40;99.90
31799;DHT22;18374;51.136;3.502;2022-11-20T16:45:14;8.40;99.90
31799;DHT22;18374;51.136;3.502;2022-11-20T16:48:27;8.30;99.90
31799;DHT22;18374;51.136;3.502;2022-11-20T16:51:30;8.30;99.90
31799;DHT22;18374;51.136;3.502;2022-11-20T16:54:22;8.30;99.90
31799;DHT22;18374;51.136;3.502;2022-11-20T16:57:29;8.20;99.90
31799;DHT22;18374;51.136;3.502;2022-11-20T17:00:00;8.20;99.90
31799;DHT22;18374;51.136;3.502;2022-11-20T17:09:47;8.10;99.90
31799;DHT22;18374;51.136;3.502;2022-11-20T17:12:18;8.10;99.90
31799;DHT22;18374;51.136;3.502;2022-11-20T17:14:53;8.10;99.90
31799;DHT22;18374;51.136;3.502;2022-11-20T17:18:36;8.10;99.90
31799;DHT22;18374;51.136;3.502;2022-11-20T17:22:35;8.20;99.90
31799;DHT22;18374;51.136;3.502;2022-11-20T17:29:11;8.00;99.90
31799;DHT22;18374;51.136;3.502;2022-11-20T17:39:45;8.00;99.90
31799;DHT22;18374;51.136;3.502;2022-11-20T17:42:40;8.00;99.90
31799;DHT22;18374;51.136;3.502;2022-11-20T17:46:35;8.10;99.90
31799;DHT22;18374;51.136;3.502;2022-11-20T17:51:11;8.00;99.90
31799;DHT22;18374;51.136;3.502;2022-11-20T18:00:05;8.20;99.90
31799;DHT22;18374;51.136;3.502;2022-11-20T18:03:26;8.20;99.90
31799;DHT22;18374;51.136;3.502;2022-11-20T18:41:27;7.80;99.90
31799;DHT22;18374;51.136;3.502;2022-11-20T18:44:17;7.70;99.90
31799;DHT22;18374;51.136;3.502;2022-11-20T18:47:06;7.70;99.90
31799;DHT22;18374;51.136;3.502;2022-11-20T18:49:46;7.70;99.90
31799;DHT22;18374;51.136;3.502;2022-11-20T18:52:27;7.60;99.90
31799;DHT22;18374;51.136;3.502;2022-11-20T18:54:56;7.60;99.90
31799;DHT22;18374;51.136;3.502;2022-11-20T18:57:26;7.60;99.90
31799;DHT22;18374;51.136;3.502;2022-11-20T18:59:55;7.50;99.90
31799;DHT22;18374;51.136;3.502;2022-11-20T19:02:32;7.40;99.90
31799;DHT22;18374;51.136;3.502;2022-11-20T19:05:07;7.40;99.90
31799;DHT22;18374;51.136;3.502;2022-11-20T19:07:37;7.30;99.90
31799;DHT22;18374;51.136;3.502;2022-11-20T19:10:05;7.30;99.90
31799;DHT22;18374;51.136;3.502;2022-11-20T19:12:34;7.30;99.90
31799;DHT22;18374;51.136;3.502;2022-11-20T19:15:02;7.30;99.90
31799;DHT22;18374;51.136;3.502;2022-11-20T19:17:32;7.30;99.90
31799;DHT22;18374;51.136;3.502;2022-11-20T19:19:59;7.30;99.90
31799;DHT22;18374;51.136;3.502;2022-11-20T19:22:27;7.30;99.90
31799;DHT22;18374;51.136;3.502;2022-11-20T19:24:55;7.30;99.90
31799;DHT22;18374;51.136;3.502;2022-11-20T19:27:22;7.30;99.90
31799;DHT22;18374;51.136;3.502;2022-11-20T19:29:50;7.40;99.90
31799;DHT22;18374;51.136;3.502;2022-11-20T19:32:18;7.30;99.90
31799;DHT22;18374;51.136;3.502;2022-11-20T19:34:46;7.30;99.90
31799;DHT22;18374;51.136;3.502;2022-11-20T19:37:13;7.20;99.90
31799;DHT22;18374;51.136;3.502;2022-11-20T19:39:41;7.20;99.90
31799;DHT22;18374;51.136;3.502;2022-11-20T19:42:08;7.10;99.90
31799;DHT22;18374;51.136;3.502;2022-11-20T19:44:36;7.00;99.90
31799;DHT22;18374;51.136;3.502;2022-11-20T19:47:04;6.90;99.90
31799;DHT22;18374;51.136;3.502;2022-11-20T19:49:37;6.80;99.90
31799;DHT22;18374;51.136;3.502;2022-11-20T19:52:08;6.80;99.90
31799;DHT22;18374;51.136;3.502;2022-11-20T19:54:37;6.80;99.90
31799;DHT22;18374;51.136;3.502;2022-11-20T19:57:05;6.80;99.90
31799;DHT22;18374;51.136;3.502;2022-11-20T19:59:33;6.80;99.90
31799;DHT22;18374;51.136;3.502;2022-11-20T20:02:01;6.90;99.90
31799;DHT22;18374;51.136;3.502;2022-11-20T20:04:30;6.90;99.90
31799;DHT22;18374;51.136;3.502;2022-11-20T20:06:57;6.90;99.90
31799;DHT22;18374;51.136;3.502;2022-11-20T20:09:25;6.90;99.90
31799;DHT22;18374;51.136;3.502;2022-11-20T20:11:53;6.90;99.90
31799;DHT22;18374;51.136;3.502;2022-11-20T20:14:21;6.90;99.90
31799;DHT22;18374;51.136;3.502;2022-11-20T20:16:49;6.80;99.90
31799;DHT22;18374;51.136;3.502;2022-11-20T20:19:17;6.80;99.90
31799;DHT22;18374;51.136;3.502;2022-11-20T20:21:45;6.90;99.90
31799;DHT22;18374;51.136;3.502;2022-11-20T20:24:14;6.80;99.90